createdAt,value
2023-04-05T00:02:38.341Z,52.63
2023-04-05T00:05:13.669Z,52.77
2023-04-05T00:07:55.732Z,52.32
2023-04-05T00:10:30.842Z,52.54
2023-04-05T00:13:26.973Z,54.87
2023-04-05T00:15:55.001Z,54.19
2023-04-05T00:18:35.431Z,51.20
2023-04-05T00:21:04.717Z,52.18
2023-04-05T00:26:43.212Z,52.98
2023-04-05T00:29:21.904Z,53.25
2023-04-05T00:31:54.845Z,52.49
2023-04-05T00:34:42.787Z,53.34
2023-04-05T00:37:27.211Z,52.93
2023-04-05T00:40:20.716Z,53.49
2023-04-05T00:43:26.244Z,53.55
2023-04-05T00:46:05.747Z,53.79
2023-04-05T00:48:40.099Z,53.52
2023-04-05T00:51:12.776Z,52.78
2023-04-05T00:53:46.225Z,52.42
2023-04-05T00:56:28.062Z,52.07
2023-04-05T00:58:56.143Z,51.61
2023-04-05T01:01:27.744Z,52.20
2023-04-05T01:04:07.499Z,53.27
2023-04-05T01:06:52.705Z,52.20
2023-04-05T01:09:45.988Z,53.95
2023-04-05T01:12:19.989Z,52.54
2023-04-05T01:14:58.507Z,53.83
2023-04-05T01:17:29.667Z,54.01
2023-04-05T01:20:21.788Z,53.85
2023-04-05T01:23:10.499Z,54.08
2023-04-05T01:26:03.111Z,55.84
2023-04-05T01:28:52.203Z,52.91
2023-04-05T01:31:43.039Z,51.35
2023-04-05T01:34:30.011Z,52.29
2023-04-05T01:37:27.890Z,50.97
2023-04-05T01:40:10.598Z,52.99
2023-04-05T01:42:49.565Z,52.83
2023-04-05T01:45:23.241Z,52.72
2023-04-05T01:50:54.542Z,52.38
2023-04-05T01:53:36.910Z,54.27
2023-04-05T01:56:10.305Z,55.27
2023-04-05T01:58:48.268Z,56.04
2023-04-05T02:01:39.257Z,56.09
2023-04-05T02:04:22.549Z,56.29
2023-04-05T02:06:56.370Z,56.04
2023-04-05T02:09:29.463Z,56.46
2023-04-05T02:12:11.748Z,58.41
2023-04-05T02:14:45.572Z,57.08
2023-04-05T02:17:27.514Z,59.25
2023-04-05T02:20:11.818Z,58.07
2023-04-05T02:22:56.407Z,56.53
2023-04-05T02:25:36.131Z,57.11
2023-04-05T02:28:11.337Z,56.38
2023-04-05T02:30:53.745Z,57.44
2023-04-05T02:33:47.160Z,56.94
2023-04-05T02:36:23.522Z,58.12
2023-04-05T02:38:56.923Z,57.59
2023-04-05T02:41:26.389Z,55.55
2023-04-05T02:44:02.163Z,55.62
2023-04-05T02:46:42.421Z,55.95
2023-04-05T02:49:21.012Z,56.57
2023-04-05T02:51:49.084Z,56.39
2023-04-05T02:54:29.526Z,57.28
2023-04-05T02:57:14.502Z,56.25
2023-04-05T02:59:54.851Z,56.03
2023-04-05T03:02:23.235Z,57.36
2023-04-05T03:05:07.232Z,56.11
2023-04-05T03:07:48.325Z,56.74
2023-04-05T03:10:20.036Z,56.75
2023-04-05T03:13:18.212Z,57.01
2023-04-05T03:15:50.961Z,57.36
2023-04-05T03:18:20.430Z,56.36
2023-04-05T03:21:06.618Z,57.58
2023-04-05T03:23:59.652Z,59.94
2023-04-05T03:26:34.674Z,58.54
2023-04-05T03:29:08.369Z,61.09
2023-04-05T03:31:43.994Z,60.13
2023-04-05T03:34:16.972Z,60.57
2023-04-05T03:36:52.763Z,61.44
2023-04-05T03:39:45.777Z,62.89
2023-04-05T03:42:21.648Z,61.59
2023-04-05T03:44:55.419Z,62.34
2023-04-05T03:47:51.330Z,62.59
2023-04-05T03:50:48.721Z,61.53
2023-04-05T03:53:31.014Z,63.55
2023-04-05T03:56:07.710Z,62.35
2023-04-05T03:58:36.749Z,62.24
2023-04-05T04:01:08.138Z,64.54
2023-04-05T04:04:01.267Z,64.16
2023-04-05T04:06:36.983Z,62.55
2023-04-05T04:09:25.484Z,64.46
2023-04-05T04:12:08.073Z,63.82
2023-04-05T04:14:48.481Z,65.52
2023-04-05T04:17:37.938Z,64.75
2023-04-05T04:20:12.343Z,64.35
2023-04-05T04:22:45.226Z,65.32
2023-04-05T04:25:20.375Z,65.96
2023-04-05T04:27:57.514Z,66.36
2023-04-05T04:30:36.186Z,66.47
2023-04-05T04:33:09.497Z,66.79
2023-04-05T04:35:52.767Z,66.42
2023-04-05T04:38:38.745Z,66.25
2023-04-05T04:41:15.233Z,66.30
2023-04-05T04:43:46.440Z,67.00
2023-04-05T04:46:20.310Z,66.50
2023-04-05T04:48:58.516Z,66.42
2023-04-05T04:51:52.453Z,67.64
2023-04-05T04:54:48.610Z,66.45
2023-04-05T04:57:31.654Z,67.76
2023-04-05T05:00:13.409Z,65.46
2023-04-05T05:02:55.423Z,65.02
2023-04-05T05:05:28.865Z,65.22
2023-04-05T05:08:07.317Z,65.94
2023-04-05T05:10:41.311Z,66.56
2023-04-05T05:16:10.856Z,65.60
2023-04-05T05:18:54.590Z,65.38
2023-04-05T05:21:33.777Z,65.35
2023-04-05T05:24:08.604Z,64.71
2023-04-05T05:26:41.719Z,65.25
2023-04-05T05:29:22.604Z,67.13
2023-04-05T05:32:20.609Z,65.42
2023-04-05T05:35:04.724Z,65.40
2023-04-05T05:37:36.119Z,65.30
2023-04-05T05:40:14.922Z,66.12
2023-04-05T05:42:49.505Z,65.35
2023-04-05T05:45:22.578Z,65.48
2023-04-05T05:48:04.511Z,65.56
2023-04-05T05:50:34.281Z,65.58
2023-04-05T05:53:02.548Z,65.39
2023-04-05T05:55:44.309Z,64.48
2023-04-05T05:58:48.866Z,65.56
2023-04-05T06:01:41.645Z,66.79
2023-04-05T06:04:27.265Z,67.75
2023-04-05T06:07:09.798Z,65.38
2023-04-05T06:09:54.052Z,66.68
2023-04-05T06:12:29.912Z,65.20
2023-04-05T06:15:03.972Z,65.42
2023-04-05T06:17:50.154Z,65.09
2023-04-05T06:20:29.139Z,64.54
2023-04-05T06:23:03.631Z,64.87
2023-04-05T06:25:36.721Z,63.77
2023-04-05T06:28:14.030Z,63.64
2023-04-05T06:31:16.505Z,64.32
2023-04-05T06:33:55.738Z,62.05
2023-04-05T06:36:27.413Z,62.34
2023-04-05T06:39:20.882Z,62.17
2023-04-05T06:42:02.509Z,61.56
2023-04-05T06:45:04.127Z,71.06
2023-04-05T06:47:38.849Z,59.35
2023-04-05T06:50:33.445Z,59.29
2023-04-05T06:53:39.030Z,58.92
2023-04-05T06:56:10.666Z,56.65
2023-04-05T06:58:49.772Z,54.36
2023-04-05T07:01:33.118Z,53.07
2023-04-05T07:07:34.545Z,52.00
2023-04-05T07:10:07.920Z,51.87
2023-04-05T07:12:48.078Z,54.69
2023-04-05T07:15:21.941Z,53.27
2023-04-05T07:17:58.763Z,52.67
2023-04-05T07:20:46.738Z,52.11
2023-04-05T07:23:20.762Z,52.22
2023-04-05T07:25:59.072Z,51.87
2023-04-05T07:28:49.598Z,53.08
2023-04-05T07:31:23.302Z,53.08
2023-04-05T07:33:51.313Z,51.36
2023-04-05T07:36:44.726Z,51.50
2023-04-05T07:39:25.080Z,51.85
2023-04-05T07:44:44.062Z,51.69
2023-04-05T07:47:12.473Z,50.64
2023-04-05T07:50:13.140Z,51.36
2023-04-05T07:52:46.252Z,50.03
2023-04-05T07:58:05.619Z,48.46
2023-04-05T08:00:39.802Z,48.00
2023-04-05T08:03:13.172Z,47.63
2023-04-05T08:06:11.232Z,47.38
2023-04-05T08:08:57.139Z,46.80
2023-04-05T08:11:44.895Z,44.96
2023-04-05T08:14:13.892Z,45.97
2023-04-05T08:16:48.942Z,45.80
2023-04-05T08:19:25.020Z,44.21
2023-04-05T08:21:58.329Z,44.48
2023-04-05T08:24:32.075Z,46.33
2023-04-05T08:27:09.044Z,45.87
2023-04-05T08:29:58.503Z,45.63
2023-04-05T08:32:41.202Z,42.60
2023-04-05T08:35:20.159Z,41.55
2023-04-05T08:40:47.124Z,45.67
2023-04-05T08:43:34.476Z,45.70
2023-04-05T08:46:30.985Z,42.08
2023-04-05T08:49:09.270Z,42.62
2023-04-05T08:51:43.452Z,42.67
2023-04-05T08:54:19.584Z,41.60
2023-04-05T09:00:05.413Z,39.78
2023-04-05T09:02:39.370Z,40.83
2023-04-05T09:05:21.285Z,39.09
2023-04-05T09:08:11.142Z,39.45
2023-04-05T09:10:41.119Z,39.65
2023-04-05T09:13:12.011Z,37.86
2023-04-05T09:15:53.174Z,38.49
2023-04-05T09:18:33.470Z,38.96
2023-04-05T09:21:22.839Z,40.01
2023-04-05T09:23:57.651Z,38.11
2023-04-05T09:26:34.213Z,34.61
2023-04-05T09:29:07.316Z,37.99
2023-04-05T09:31:57.770Z,37.13
2023-04-05T09:34:38.175Z,37.86
2023-04-05T09:37:25.226Z,36.08
2023-04-05T09:40:15.811Z,34.77
2023-04-05T09:42:58.983Z,34.75
2023-04-05T09:45:40.599Z,35.45
2023-04-05T09:48:15.172Z,37.30
2023-04-05T09:51:17.836Z,36.34
2023-04-05T09:54:04.838Z,33.66
2023-04-05T09:56:43.937Z,33.67
2023-04-05T09:59:25.973Z,34.79
2023-04-05T10:01:59.796Z,34.82
2023-04-05T10:04:48.112Z,35.53
2023-04-05T10:07:27.716Z,35.38
2023-04-05T10:09:58.156Z,32.96
2023-04-05T10:12:33.492Z,36.03
2023-04-05T10:15:06.722Z,33.71
2023-04-05T10:18:02.109Z,33.28
2023-04-05T10:20:42.096Z,32.37
2023-04-05T10:23:29.544Z,34.39
2023-04-05T10:26:26.785Z,33.21
2023-04-05T10:28:57.806Z,32.20
2023-04-05T10:32:13.740Z,35.07
2023-04-05T10:35:13.532Z,34.65
2023-04-05T10:38:15.642Z,34.27
2023-04-05T10:40:48.787Z,33.47
2023-04-05T10:43:30.231Z,33.32
2023-04-05T10:46:08.195Z,34.14
2023-04-05T10:49:06.769Z,34.27
2023-04-05T10:51:48.545Z,33.43
2023-04-05T10:54:25.017Z,32.96
2023-04-05T10:57:09.048Z,34.87
2023-04-05T10:59:50.368Z,33.10
2023-04-05T11:02:24.047Z,31.18
2023-04-05T11:05:01.979Z,32.18
2023-04-05T11:07:54.058Z,34.19
2023-04-05T11:10:22.133Z,31.50
2023-04-05T11:13:02.131Z,34.67
2023-04-05T11:15:41.450Z,34.36
2023-04-05T11:18:23.238Z,32.17
2023-04-05T11:21:14.571Z,31.79
2023-04-05T11:24:08.313Z,30.91
2023-04-05T11:27:07.686Z,30.75
2023-04-05T11:29:57.953Z,32.04
2023-04-05T11:32:53.887Z,32.08
2023-04-05T11:35:38.434Z,31.32
2023-04-05T11:38:31.498Z,30.93
2023-04-05T11:41:19.577Z,30.06
2023-04-05T11:44:00.611Z,30.45
2023-04-05T11:46:40.048Z,30.39
2023-04-05T11:49:11.526Z,29.35
2023-04-05T11:51:50.192Z,30.65
2023-04-05T11:54:38.533Z,28.22
2023-04-05T11:57:11.533Z,28.76
2023-04-05T11:59:56.456Z,29.76
2023-04-05T12:02:30.485Z,25.57
2023-04-05T12:05:09.362Z,26.39
2023-04-05T12:07:48.621Z,27.55
2023-04-05T12:10:20.928Z,27.67
2023-04-05T12:12:57.218Z,27.21
2023-04-05T12:15:29.532Z,26.66
2023-04-05T12:18:00.310Z,27.19
2023-04-05T12:20:34.783Z,26.95
2023-04-05T12:23:03.651Z,27.52
2023-04-05T12:25:44.086Z,27.59
2023-04-05T12:28:18.216Z,27.33
2023-04-05T12:31:12.731Z,27.10
2023-04-05T12:33:55.851Z,26.36
2023-04-05T12:36:26.364Z,26.93
2023-04-05T12:39:02.141Z,26.74
2023-04-05T12:41:42.858Z,26.30
2023-04-05T12:44:31.719Z,26.26
2023-04-05T12:47:12.374Z,26.39
2023-04-05T12:49:48.370Z,26.35
2023-04-05T12:52:28.629Z,27.16
2023-04-05T12:55:08.873Z,25.62
2023-04-05T12:58:23.851Z,25.60
2023-04-05T13:00:55.030Z,25.94
2023-04-05T13:03:28.669Z,26.09
2023-04-05T13:06:02.067Z,25.31
2023-04-05T13:08:36.106Z,24.93
2023-04-05T13:11:13.469Z,24.90
2023-04-05T13:13:52.287Z,23.55
2023-04-05T13:16:25.429Z,25.72
2023-04-05T13:18:58.523Z,26.96
2023-04-05T13:21:32.913Z,24.81
2023-04-05T13:24:05.923Z,24.97
2023-04-05T13:26:50.006Z,25.83
2023-04-05T13:29:18.149Z,24.86
2023-04-05T13:31:50.924Z,25.85
2023-04-05T13:34:30.846Z,24.69
2023-04-05T13:37:12.374Z,25.23
2023-04-05T13:39:43.395Z,23.66
2023-04-05T13:42:18.026Z,24.57
2023-04-05T13:45:16.314Z,24.14
2023-04-05T13:47:49.377Z,24.35
2023-04-05T13:50:26.901Z,25.28
2023-04-05T13:53:00.607Z,25.10
2023-04-05T13:55:34.896Z,24.05
2023-04-05T13:58:02.917Z,23.29
2023-04-05T14:00:35.852Z,24.25
2023-04-05T14:03:10.286Z,25.26
2023-04-05T14:05:38.955Z,24.52
2023-04-05T14:08:20.876Z,23.81
2023-04-05T14:10:48.898Z,26.02
2023-04-05T14:13:19.109Z,25.73
2023-04-05T14:15:53.963Z,25.35
2023-04-05T14:18:25.329Z,23.85
2023-04-05T14:20:57.933Z,24.18
2023-04-05T14:23:28.386Z,24.82
2023-04-05T14:26:02.546Z,24.67
2023-04-05T14:28:33.228Z,24.39
2023-04-05T14:31:05.479Z,25.07
2023-04-05T14:33:36.668Z,24.98
2023-04-05T14:36:18.540Z,25.50
2023-04-05T14:38:51.582Z,26.22
2023-04-05T14:41:23.407Z,27.59
2023-04-05T14:43:56.095Z,25.48
2023-04-05T14:46:30.849Z,26.42
2023-04-05T14:49:21.651Z,26.12
2023-04-05T14:52:02.148Z,28.80
2023-04-05T14:54:45.406Z,28.07
2023-04-05T14:57:21.219Z,27.20
2023-04-05T15:00:01.810Z,27.20
2023-04-05T15:02:36.729Z,27.16
2023-04-05T15:05:06.123Z,27.05
2023-04-05T15:07:37.678Z,28.16
2023-04-05T15:10:06.781Z,27.66
2023-04-05T15:12:50.317Z,28.08
2023-04-05T15:15:20.961Z,29.83
2023-04-05T15:17:53.765Z,28.29
2023-04-05T15:20:27.093Z,28.81
2023-04-05T15:22:56.632Z,29.02
2023-04-05T15:25:44.323Z,29.14
2023-04-05T15:28:17.689Z,29.43
2023-04-05T15:30:48.481Z,27.99
2023-04-05T15:33:17.470Z,29.16
2023-04-05T15:35:48.590Z,29.68
2023-04-05T15:38:21.352Z,29.57
2023-04-05T15:40:51.536Z,29.88
2023-04-05T15:43:26.476Z,28.94
2023-04-05T15:45:59.451Z,29.57
2023-04-05T15:48:30.505Z,28.77
2023-04-05T15:50:58.900Z,30.00
2023-04-05T15:53:27.190Z,30.19
2023-04-05T15:55:59.701Z,29.75
2023-04-05T15:58:28.459Z,30.54
2023-04-05T16:00:56.539Z,30.64
2023-04-05T16:03:29.949Z,29.91
2023-04-05T16:05:58.451Z,31.35
2023-04-05T16:08:35.438Z,31.02
2023-04-05T16:11:10.033Z,30.79
2023-04-05T16:13:38.677Z,31.26
2023-04-05T16:16:15.401Z,31.93
2023-04-05T16:19:01.356Z,33.32
2023-04-05T16:21:54.680Z,32.68
2023-04-05T16:24:28.427Z,30.58
2023-04-05T16:27:02.273Z,32.86
2023-04-05T16:29:34.529Z,30.81
2023-04-05T16:35:38.198Z,33.46
2023-04-05T16:38:12.586Z,32.29
2023-04-05T16:40:57.036Z,30.62
2023-04-05T16:43:25.225Z,30.71
2023-04-05T16:45:53.312Z,31.55
2023-04-05T16:48:21.531Z,32.00
2023-04-05T16:51:05.705Z,32.16
2023-04-05T16:53:57.375Z,30.94
2023-04-05T16:56:55.576Z,31.73
2023-04-05T16:59:34.390Z,32.38
2023-04-05T17:02:27.968Z,33.54
2023-04-05T17:05:14.999Z,34.99
2023-04-05T17:08:18.417Z,33.69
2023-04-05T17:13:37.150Z,32.33
2023-04-05T17:16:16.746Z,32.29
2023-04-05T17:18:56.430Z,33.62
2023-04-05T17:21:31.603Z,35.76
2023-04-05T17:24:26.370Z,34.97
2023-04-05T17:26:59.406Z,36.43
2023-04-05T17:29:32.319Z,38.02
2023-04-05T17:32:05.339Z,35.42
2023-04-05T17:34:59.968Z,34.81
2023-04-05T17:37:30.848Z,35.91
2023-04-05T17:40:02.280Z,34.71
2023-04-05T17:42:36.659Z,35.24
2023-04-05T17:45:07.906Z,35.62
2023-04-05T17:47:41.206Z,35.87
2023-04-05T17:50:14.181Z,36.45
2023-04-05T17:52:42.349Z,37.22
2023-04-05T17:55:15.536Z,37.24
2023-04-05T17:57:57.563Z,39.54
2023-04-05T18:00:40.123Z,38.87
2023-04-05T18:03:30.854Z,39.05
2023-04-05T18:06:15.547Z,40.63
2023-04-05T18:08:46.647Z,41.79
2023-04-05T18:11:26.909Z,42.94
2023-04-05T18:14:01.134Z,44.52
2023-04-05T18:16:30.605Z,42.88
2023-04-05T18:19:04.841Z,43.54
2023-04-05T18:21:46.320Z,42.46
2023-04-05T18:24:26.725Z,38.90
2023-04-05T18:26:55.249Z,37.21
2023-04-05T18:29:39.084Z,38.22
2023-04-05T18:32:08.510Z,37.06
2023-04-05T18:34:36.782Z,38.77
2023-04-05T18:37:09.630Z,40.07
2023-04-05T18:39:43.421Z,40.22
2023-04-05T18:42:14.905Z,42.98
2023-04-05T18:44:46.981Z,42.92
2023-04-05T18:47:20.841Z,42.77
2023-04-05T18:49:48.911Z,43.91
2023-04-05T18:52:25.680Z,44.65
2023-04-05T18:55:08.435Z,44.33
2023-04-05T18:57:54.150Z,48.21
2023-04-05T19:00:23.441Z,45.54
2023-04-05T19:02:51.726Z,47.37
2023-04-05T19:05:29.691Z,46.71
2023-04-05T19:08:01.351Z,47.88
2023-04-05T19:10:36.452Z,44.73
2023-04-05T19:13:04.605Z,46.95
2023-04-05T19:15:38.125Z,45.60
2023-04-05T19:18:13.144Z,47.06
2023-04-05T19:20:55.849Z,46.41
2023-04-05T19:23:54.930Z,48.27
2023-04-05T19:26:23.208Z,46.63
2023-04-05T19:28:56.403Z,47.02
2023-04-05T19:31:36.363Z,46.66
2023-04-05T19:34:12.349Z,47.36
2023-04-05T19:36:55.174Z,47.21
2023-04-05T19:39:27.137Z,48.98
2023-04-05T19:42:00.940Z,48.73
2023-04-05T19:45:23.333Z,49.14
2023-04-05T19:47:51.473Z,51.00
2023-04-05T19:50:56.657Z,48.92
2023-04-05T19:53:44.131Z,49.16
2023-04-05T19:56:23.254Z,50.34
2023-04-05T19:59:01.759Z,49.59
2023-04-05T20:01:37.361Z,49.17
2023-04-05T20:04:20.786Z,51.63
2023-04-05T20:07:02.732Z,49.42
2023-04-05T20:09:31.233Z,50.74
2023-04-05T20:12:05.189Z,50.60
2023-04-05T20:14:42.583Z,49.93
2023-04-05T20:17:10.937Z,50.90
2023-04-05T20:19:40.665Z,53.04
2023-04-05T20:22:25.353Z,54.12
2023-04-05T20:24:58.506Z,54.12
2023-04-05T20:27:32.217Z,53.84
2023-04-05T20:30:09.649Z,53.15
2023-04-05T20:32:51.269Z,55.37
2023-04-05T20:35:33.277Z,55.52
2023-04-05T20:38:03.542Z,56.04
2023-04-05T20:40:47.136Z,55.96
2023-04-05T20:43:15.266Z,56.13
2023-04-05T20:45:48.030Z,55.75
2023-04-05T20:48:26.624Z,55.60
2023-04-05T20:51:02.338Z,55.60
2023-04-05T20:53:30.722Z,56.06
2023-04-05T20:56:02.069Z,57.13
2023-04-05T20:58:35.528Z,57.70
2023-04-05T21:01:18.896Z,56.83
2023-04-05T21:03:47.090Z,58.55
2023-04-05T21:06:15.175Z,57.93
2023-04-05T21:08:43.398Z,57.48
2023-04-05T21:11:16.925Z,58.21
2023-04-05T21:13:45.436Z,58.52
2023-04-05T21:16:20.355Z,58.24
2023-04-05T21:18:57.951Z,57.90
2023-04-05T21:21:32.538Z,57.29
2023-04-05T21:24:00.495Z,59.53
2023-04-05T21:26:35.553Z,58.27
2023-04-05T21:29:07.947Z,59.67
2023-04-05T21:31:36.253Z,58.48
2023-04-05T21:34:08.916Z,59.99
2023-04-05T21:36:42.708Z,60.89
2023-04-05T21:39:14.128Z,59.86
2023-04-05T21:41:42.276Z,60.70
2023-04-05T21:44:10.722Z,60.78
2023-04-05T21:46:44.001Z,62.20
2023-04-05T21:49:12.099Z,65.90
2023-04-05T21:51:45.239Z,65.57
2023-04-05T21:54:15.867Z,66.80
2023-04-05T21:56:47.482Z,65.82
2023-04-05T21:59:20.310Z,65.72
2023-04-05T22:01:57.714Z,66.42
2023-04-05T22:04:30.336Z,67.12
2023-04-05T22:06:58.331Z,64.08
2023-04-05T22:09:26.462Z,64.12
2023-04-05T22:11:58.302Z,63.40
2023-04-05T22:14:34.286Z,64.01
2023-04-05T22:17:03.147Z,64.30
2023-04-05T22:19:33.904Z,63.60
2023-04-05T22:22:06.747Z,62.87
2023-04-05T22:24:55.798Z,62.61
2023-04-05T22:27:26.811Z,65.36
2023-04-05T22:29:55.798Z,64.68
2023-04-05T22:32:23.897Z,64.39
2023-04-05T22:34:51.975Z,64.49
2023-04-05T22:37:20.001Z,66.02
2023-04-05T22:39:48.066Z,64.68
2023-04-05T22:42:16.071Z,63.78
2023-04-05T22:44:44.127Z,63.00
2023-04-05T22:47:12.124Z,63.98
2023-04-05T22:49:40.094Z,64.96
2023-04-05T22:52:12.873Z,62.30
2023-04-05T22:54:41.588Z,61.95
2023-04-05T22:57:11.185Z,62.73
2023-04-05T22:59:51.907Z,61.93
2023-04-05T23:02:22.085Z,60.64
2023-04-05T23:04:55.086Z,59.66
2023-04-05T23:07:23.196Z,59.76
2023-04-05T23:09:51.590Z,61.33
2023-04-05T23:12:23.703Z,60.91
2023-04-05T23:14:59.407Z,60.46
2023-04-05T23:17:32.556Z,62.00
2023-04-05T23:20:04.598Z,63.02
2023-04-05T23:22:38.811Z,62.92
2023-04-05T23:25:07.360Z,63.53
2023-04-05T23:27:43.176Z,63.31
2023-04-05T23:30:11.568Z,63.52
2023-04-05T23:32:45.507Z,63.87
2023-04-05T23:35:18.220Z,65.90
2023-04-05T23:37:51.171Z,65.65
2023-04-05T23:40:19.377Z,65.58
2023-04-05T23:42:52.383Z,63.99
2023-04-05T23:45:26.176Z,64.14
2023-04-05T23:50:42.600Z,65.02
2023-04-05T23:53:15.623Z,65.62
2023-04-05T23:55:49.235Z,66.48
2023-04-05T23:58:17.243Z,68.35
